Alverton, PA

4:48 AM EST on February 12, 2016 (GMT -0500)
Near Evergreen Drive-in | | Change Station
CLOSE
Current Station
Personal Weather Station
Location: Mount Pleasant, PA
Elevation: 1060 ft
Nearby Weather Stations
Active Advisory: Wind Chill Advisory

Elev 1060 ft 40.12 °N, 79.55 °W | Updated 8 seconds ago

Clear
Clear
-0.6 °F
Feels Like -1 °F
N
0.0
Wind Variable Wind from North
Gusts 0.0 mph

Today
High -- | Low -- °F
--% Chance of Precip.
Yesterday
High -- | Low -- °F
Precip. -- in
Pressure 30.19 in
Visibility 10.0 miles
Clouds Clear
Windchill -1 °F
Dew Point -13 °F
Humidity 55%
Rainfall 0.00 in
Snow Depth Not available.
7:15 AM 5:49 PM
Waxing Crescent, 19% visible
METAR KLBE 120935Z AUTO 00000KT 10SM CLR M17/M18 A3019 RMK AO2
Pressure 30.19 in
Visibility 10.0 miles
Clouds Clear
Windchill -1 °F
Dew Point -13 °F
Humidity 55%
Rainfall 0.00 in
Snow Depth Not available.
7:15 AM 5:49 PM
Waxing Crescent, 19% visible
METAR KLBE 120935Z AUTO 00000KT 10SM CLR M17/M18 A3019 RMK AO2

10-Day Weather Forecast

Almanac

Astronomy

Feb. 12, 2016 Rise Set
Actual Time
Civil Twilight
Nautical Twilight
Astronomical Twilight
Moon
Length of Visible Light
Length of Day
Tomorrow will be .
, % of the Moon is Illuminated

Today's Extremes

State Highs State Lows

Community

WunderPhotos

Upload Photos

1,892,286 photos uploaded!

WunderBlog® & News

Nearby

Air Quality

  Air Quality AQ Index Pollutant
Not available.

Snow Depth

Station Depth Elevation

Earthquake Activity

City Distance Mag. Time & Date
Minimum magnitude displayed is 2.5.

Coastal Water Temperatures

Place Temperature

Stations

Nearby Weather Stations

Station Location Temp. Windchill Dew Point Humidity Wind Precip. Elev Updated Type
                   

Watches & Warnings

Wind Chill Advisory
Issued: 3:29 AM EST Feb. 12, 2016 – National Weather Service

... Wind Chill Advisory in effect from midnight tonight to 9 am
EST Sunday...

The National Weather Service in Pittsburgh has issued a Wind
Chill Advisory... which is in effect from midnight tonight to 9 am
EST Sunday.

* Wind chill... 10 below to 20 below tonight through Sunday
morning.

* Wind... northwest 10 to 15 mph with gusts up to 30 mph.

* Impacts... frost bite and hypothermia are possible if precautions
are not taken.

Recautionary/preparedness actions...

A Wind Chill Advisory means that very cold air and strong winds
will combine to generate low wind chills. This will result in
frost bite and lead to hypothermia if precautions are not taken.
If you must venture outdoors... make sure you wear a hat and
gloves.